Time;durP1;ratioP1;P1;durP2;ratioP2;P2;SDS_P1;SDS_P2;PMS_P1;PMS_P2;Temp;Humidity;BMP_temperature;BMP_pressure;BME280_temperature;BME280_humidity;BME280_pressure;Samples;Min_cycle;Max_cycle;Signal;HPM_P1;HPM_P2
2021/03/04 00:00:12;;;;;;;77.78;37.90;;;9.80;99.90;;;;;;4160080;28;20036;-68
2021/03/04 00:02:18;;;;;;;62.25;35.28;;;9.80;99.90;;;;;;4148708;28;20026;-68
2021/03/04 00:04:19;;;;;;;60.05;35.05;;;9.70;99.90;;;;;;4159343;28;20090;-68
2021/03/04 00:06:19;;;;;;;59.55;35.88;;;9.70;99.90;;;;;;4153432;28;20030;-69
2021/03/04 00:08:20;;;;;;;68.82;40.10;;;9.70;99.90;;;;;;4155290;28;20057;-68
2021/03/04 00:10:21;;;;;;;70.85;41.15;;;9.70;99.90;;;;;;4159898;28;20053;-69
2021/03/04 00:12:23;;;;;;;71.82;41.80;;;9.70;99.90;;;;;;4150017;28;20037;-68
2021/03/04 00:14:23;;;;;;;70.05;40.50;;;9.70;99.90;;;;;;4149291;28;20144;-69
2021/03/04 00:16:24;;;;;;;72.88;40.95;;;9.60;99.90;;;;;;4142851;28;20041;-69
2021/03/04 00:18:24;;;;;;;66.82;39.03;;;9.70;99.90;;;;;;4155259;28;20486;-68
2021/03/04 00:20:32;;;;;;;64.28;38.78;;;9.70;99.90;;;;;;4147454;28;20041;-68
2021/03/04 00:22:33;;;;;;;70.20;40.05;;;9.70;99.90;;;;;;4148285;28;20057;-69
2021/03/04 00:24:34;;;;;;;73.80;40.17;;;9.60;99.90;;;;;;4159184;28;20026;-69
2021/03/04 00:26:35;;;;;;;65.57;38.33;;;9.60;99.90;;;;;;4152437;28;20871;-69
2021/03/04 00:28:35;;;;;;;70.57;39.88;;;9.60;99.90;;;;;;4158778;28;20041;-69
2021/03/04 00:30:36;;;;;;;66.75;37.40;;;9.60;99.90;;;;;;4157912;28;20036;-69
2021/03/04 00:32:37;;;;;;;63.05;35.75;;;9.60;99.90;;;;;;4159192;28;20204;-69
2021/03/04 00:34:38;;;;;;;57.42;33.25;;;9.50;99.90;;;;;;4159359;28;20079;-69
2021/03/04 00:36:38;;;;;;;57.45;33.10;;;9.60;99.90;;;;;;4159276;28;20038;-68
2021/03/04 00:38:39;;;;;;;60.47;33.03;;;9.60;99.90;;;;;;4158721;28;20045;-69
2021/03/04 00:40:40;;;;;;;56.38;33.53;;;9.60;99.90;;;;;;4158113;28;20496;-68
2021/03/04 00:42:40;;;;;;;60.75;35.05;;;9.60;99.90;;;;;;4159020;28;20041;-69
2021/03/04 00:44:41;;;;;;;55.47;32.67;;;9.70;99.90;;;;;;4150965;28;20033;-68
2021/03/04 00:46:42;;;;;;;62.42;36.03;;;9.70;99.90;;;;;;4159342;28;20045;-69
2021/03/04 00:48:42;;;;;;;58.53;34.60;;;9.70;99.90;;;;;;4152796;28;20078;-69
2021/03/04 00:50:43;;;;;;;59.88;33.80;;;9.60;99.90;;;;;;4151111;28;20455;-69
2021/03/04 00:52:44;;;;;;;55.50;33.22;;;9.60;99.90;;;;;;4158793;28;20034;-68
2021/03/04 00:54:44;;;;;;;58.13;32.78;;;9.60;99.90;;;;;;4158154;28;20033;-69
2021/03/04 00:56:45;;;;;;;57.97;34.45;;;9.60;99.90;;;;;;4159450;28;20045;-68
2021/03/04 00:58:48;;;;;;;;;;;9.60;99.90;;;;;;4156444;28;20494;-69
2021/03/04 01:00:48;;;;;;;61.92;34.13;;;9.60;99.90;;;;;;4158191;28;19959;-69
2021/03/04 01:02:49;;;;;;;62.25;34.25;;;9.60;99.90;;;;;;4159229;28;20034;-69
2021/03/04 01:04:52;;;;;;;62.13;34.67;;;9.60;99.90;;;;;;4159272;28;20030;-69
2021/03/04 01:06:52;;;;;;;66.10;34.50;;;9.60;99.90;;;;;;4156124;28;20125;-69
2021/03/04 01:08:53;;;;;;;60.75;34.53;;;9.50;99.90;;;;;;4153326;28;20445;-68
2021/03/04 01:10:53;;;;;;;56.90;32.63;;;9.60;99.90;;;;;;4148713;28;20030;-68
2021/03/04 01:12:54;;;;;;;56.45;33.08;;;9.50;99.90;;;;;;4159226;28;20151;-68
2021/03/04 01:14:55;;;;;;;57.95;33.45;;;9.50;99.90;;;;;;4159389;28;20879;-68
2021/03/04 01:16:58;;;;;;;57.08;34.13;;;9.50;99.90;;;;;;4157039;28;20091;-69
2021/03/04 01:18:58;;;;;;;58.42;33.90;;;9.50;99.90;;;;;;4151128;28;20065;-69
2021/03/04 01:20:59;;;;;;;57.80;33.67;;;9.50;99.90;;;;;;4152069;28;20042;-68
2021/03/04 01:23:00;;;;;;;59.00;33.55;;;9.50;99.90;;;;;;4156110;28;20045;-68
2021/03/04 01:25:01;;;;;;;62.33;34.40;;;9.50;99.90;;;;;;4157957;28;20065;-68
2021/03/04 01:27:01;;;;;;;54.15;31.42;;;9.50;99.90;;;;;;4159490;28;20026;-68
2021/03/04 01:29:03;;;;;;;57.92;32.92;;;9.50;99.90;;;;;;4154939;28;20029;-68
2021/03/04 01:31:04;;;;;;;57.10;33.65;;;9.40;99.90;;;;;;4162043;28;20087;-69
2021/03/04 01:33:05;;;;;;;59.88;34.45;;;9.40;99.90;;;;;;4161787;28;20033;-68
2021/03/04 01:35:09;;;;;;;54.35;31.27;;;9.50;99.90;;;;;;4160057;28;20032;-68
2021/03/04 01:37:09;;;;;;;61.95;34.53;;;9.50;99.90;;;;;;4161776;28;20511;-68
2021/03/04 01:39:10;;;;;;;62.55;34.15;;;9.50;99.90;;;;;;4159771;28;20033;-69
2021/03/04 01:41:11;;;;;;;60.45;32.75;;;9.40;99.90;;;;;;4139189;28;20113;-68
2021/03/04 01:43:12;;;;;;;62.88;33.03;;;9.40;99.90;;;;;;4159608;28;20112;-69
2021/03/04 01:45:14;;;;;;;57.92;32.33;;;9.40;99.90;;;;;;4161842;28;20053;-68
2021/03/04 01:47:15;;;;;;;61.78;33.75;;;9.30;99.90;;;;;;4151567;28;20041;-69
2021/03/04 01:49:16;;;;;;;64.97;35.28;;;9.30;99.90;;;;;;4158527;28;20065;-68
2021/03/04 01:51:18;;;;;;;65.93;35.75;;;9.30;99.90;;;;;;4155220;28;20030;-68
2021/03/04 01:53:19;;;;;;;61.65;33.97;;;9.20;99.90;;;;;;4148999;28;20034;-69
2021/03/04 01:55:20;;;;;;;62.72;35.92;;;9.10;99.90;;;;;;4161997;28;20175;-68
2021/03/04 01:57:21;;;;;;;60.17;32.78;;;9.10;99.90;;;;;;4162054;28;20231;-69
2021/03/04 01:59:22;;;;;;;59.70;33.78;;;9.10;99.90;;;;;;4156532;28;20034;-68
2021/03/04 02:01:53;;;;;;;55.47;32.53;;;9.10;99.90;;;;;;4149736;28;20073;-69
2021/03/04 02:03:54;;;;;;;59.75;33.35;;;9.10;99.90;;;;;;4161364;28;20033;-69
2021/03/04 02:05:55;;;;;;;62.88;34.13;;;9.10;99.90;;;;;;4161791;28;20041;-69
2021/03/04 02:08:17;;;;;;;64.32;35.22;;;9.00;99.90;;;;;;4160261;28;20060;-68
2021/03/04 02:10:26;;;;;;;61.80;33.37;;;9.00;99.90;;;;;;4159297;28;20040;-68
2021/03/04 02:12:50;;;;;;;62.78;33.25;;;8.90;99.90;;;;;;4161777;28;20367;-68
2021/03/04 02:14:53;;;;;;;;;;;8.90;99.90;;;;;;4153383;28;20048;-68
2021/03/04 02:17:01;;;;;;;56.47;30.55;;;8.90;99.90;;;;;;4161301;28;19909;-68
2021/03/04 02:19:07;;;;;;;55.47;30.65;;;8.90;99.90;;;;;;4161366;28;20041;-69
2021/03/04 02:21:27;;;;;;;54.20;30.65;;;8.90;99.90;;;;;;4161166;28;20362;-69
2021/03/04 02:23:45;;;;;;;52.88;29.55;;;8.90;99.90;;;;;;4149524;28;20060;-69
2021/03/04 02:26:07;;;;;;;55.08;30.52;;;8.90;99.90;;;;;;4161083;28;20093;-69
2021/03/04 02:28:09;;;;;;;52.15;28.55;;;8.90;99.90;;;;;;4160792;28;20133;-69
2021/03/04 02:30:14;;;;;;;54.13;29.90;;;8.80;99.90;;;;;;4155523;28;20510;-68
2021/03/04 02:32:21;;;;;;;50.13;28.42;;;8.80;99.90;;;;;;4150310;28;20081;-69
2021/03/04 02:34:24;;;;;;;51.08;28.85;;;8.80;99.90;;;;;;4158135;28;20503;-69
2021/03/04 02:36:26;;;;;;;47.67;27.55;;;8.80;99.90;;;;;;4158839;28;20215;-69
2021/03/04 02:38:28;;;;;;;49.72;27.63;;;8.80;99.90;;;;;;4147507;28;20132;-69
2021/03/04 02:40:31;;;;;;;49.22;27.70;;;8.80;99.90;;;;;;4153080;28;20038;-69
2021/03/04 02:42:32;;;;;;;48.78;27.40;;;8.80;99.90;;;;;;4152554;28;20125;-69
2021/03/04 02:44:34;;;;;;;52.08;29.65;;;8.80;99.90;;;;;;4159805;28;20041;-68
2021/03/04 02:46:36;;;;;;;48.83;26.50;;;8.70;99.90;;;;;;4156770;28;20044;-68
2021/03/04 02:48:37;;;;;;;;;;;8.70;99.90;;;;;;4162427;28;20037;-68
2021/03/04 02:50:40;;;;;;;47.33;26.60;;;8.70;99.90;;;;;;4159753;28;19913;-68
2021/03/04 02:52:41;;;;;;;49.30;27.15;;;8.70;99.90;;;;;;4159319;28;20426;-69
2021/03/04 02:54:42;;;;;;;48.45;27.52;;;8.60;99.90;;;;;;4164697;28;20028;-69
2021/03/04 02:56:44;;;;;;;52.38;27.55;;;8.60;99.90;;;;;;4159027;28;20116;-69
2021/03/04 02:58:50;;;;;;;56.13;29.42;;;8.60;99.90;;;;;;4160768;28;20478;-68
2021/03/04 03:00:51;;;;;;;51.83;28.35;;;8.50;99.90;;;;;;4141340;28;20116;-68
2021/03/04 03:02:54;;;;;;;50.40;27.95;;;8.50;99.90;;;;;;4126888;28;20043;-69
2021/03/04 03:04:57;;;;;;;49.38;28.08;;;8.50;99.90;;;;;;4157494;28;20127;-68
2021/03/04 03:06:59;;;;;;;49.53;27.83;;;8.40;99.90;;;;;;4144919;28;20046;-69
2021/03/04 03:09:02;;;;;;;48.90;27.17;;;8.40;99.90;;;;;;4165444;28;20802;-68
2021/03/04 03:11:04;;;;;;;44.83;25.80;;;8.40;99.90;;;;;;4142181;28;20038;-68
2021/03/04 03:13:07;;;;;;;47.40;27.20;;;8.40;99.90;;;;;;4160668;28;20041;-68
2021/03/04 03:15:10;;;;;;;45.45;26.38;;;8.40;99.90;;;;;;4159349;28;20334;-69
2021/03/04 03:17:11;;;;;;;44.15;25.48;;;8.30;99.90;;;;;;4160504;28;20029;-69
2021/03/04 03:19:12;;;;;;;44.67;25.65;;;8.30;99.90;;;;;;4156675;28;20026;-69
2021/03/04 03:21:13;;;;;;;46.85;25.48;;;8.30;99.90;;;;;;4153393;28;20029;-69
2021/03/04 03:23:13;;;;;;;47.65;26.63;;;8.30;99.90;;;;;;4150434;28;20382;-69
2021/03/04 03:25:15;;;;;;;47.92;27.60;;;8.30;99.90;;;;;;4152499;28;20781;-69
2021/03/04 03:27:15;;;;;;;48.67;27.98;;;8.30;99.90;;;;;;4156762;28;20038;-68
2021/03/04 03:29:16;;;;;;;52.53;28.50;;;8.20;99.90;;;;;;4163837;28;20036;-69
2021/03/04 03:31:21;;;;;;;52.90;28.90;;;8.10;99.90;;;;;;4158396;28;20029;-68
2021/03/04 03:33:23;;;;;;;56.83;29.20;;;8.10;99.90;;;;;;4160386;28;20042;-69
2021/03/04 03:35:25;;;;;;;51.05;28.02;;;8.10;99.90;;;;;;4159421;28;20041;-68
2021/03/04 03:37:28;;;;;;;54.70;29.05;;;8.00;99.90;;;;;;4160247;28;20095;-68
2021/03/04 03:39:29;;;;;;;;;;;8.00;99.90;;;;;;4140913;28;20042;-68
2021/03/04 03:41:31;;;;;;;50.92;27.10;;;7.90;99.90;;;;;;4157867;28;19967;-69
2021/03/04 03:43:33;;;;;;;51.47;27.60;;;8.00;99.90;;;;;;4148979;28;20030;-69
2021/03/04 03:45:39;;;;;;;57.05;30.08;;;8.00;99.90;;;;;;4154546;28;20178;-68
2021/03/04 03:47:41;;;;;;;72.00;34.20;;;8.00;99.90;;;;;;4148287;28;20096;-69
2021/03/04 03:49:43;;;;;;;78.30;32.60;;;8.00;99.90;;;;;;4160140;28;20098;-69
2021/03/04 03:51:45;;;;;;;75.32;36.45;;;8.00;99.90;;;;;;4154138;28;20034;-69
2021/03/04 03:53:45;;;;;;;73.53;34.55;;;7.90;99.90;;;;;;4160063;28;20041;-68
2021/03/04 03:55:48;;;;;;;71.30;33.92;;;7.90;99.90;;;;;;4158681;28;20067;-68
2021/03/04 03:57:49;;;;;;;67.40;34.10;;;7.90;99.90;;;;;;4149363;28;20445;-69
2021/03/04 03:59:51;;;;;;;69.03;34.22;;;7.80;99.90;;;;;;4154779;28;20124;-68
2021/03/04 04:01:53;;;;;;;60.22;31.48;;;7.80;99.90;;;;;;4159449;28;20026;-69
2021/03/04 04:03:57;;;;;;;67.70;32.83;;;7.80;99.90;;;;;;4159899;28;20060;-68
2021/03/04 04:05:58;;;;;;;64.78;32.70;;;7.80;99.90;;;;;;4154699;28;20033;-69
2021/03/04 04:08:00;;;;;;;77.95;35.90;;;7.70;99.90;;;;;;4156148;28;20116;-68
2021/03/04 04:10:04;;;;;;;72.47;36.17;;;7.70;99.90;;;;;;4152861;28;20059;-68
2021/03/04 04:12:05;;;;;;;74.05;35.67;;;7.70;99.90;;;;;;4156937;28;20476;-68
2021/03/04 04:14:07;;;;;;;69.63;35.13;;;7.60;99.90;;;;;;4159730;28;20029;-68
2021/03/04 04:16:08;;;;;;;69.05;33.72;;;7.60;99.90;;;;;;4157590;28;20072;-69
2021/03/04 04:18:10;;;;;;;63.47;32.92;;;7.60;99.90;;;;;;4159604;28;20026;-69
2021/03/04 04:20:10;;;;;;;72.63;34.05;;;7.60;99.90;;;;;;4159464;28;20405;-69
2021/03/04 04:22:12;;;;;;;67.55;33.40;;;7.60;99.90;;;;;;4153630;28;20029;-69
2021/03/04 04:24:12;;;;;;;63.78;32.83;;;7.60;99.90;;;;;;4157472;28;20040;-69
2021/03/04 04:26:14;;;;;;;66.40;33.85;;;7.60;99.90;;;;;;4159140;28;20112;-69
2021/03/04 04:28:15;;;;;;;65.43;32.65;;;7.60;99.90;;;;;;4135006;28;20073;-69
2021/03/04 04:30:17;;;;;;;65.10;32.08;;;7.60;99.90;;;;;;4157239;28;20124;-69
2021/03/04 04:32:18;;;;;;;63.50;32.00;;;7.60;99.90;;;;;;4149655;28;20037;-68
2021/03/04 04:34:18;;;;;;;61.88;31.58;;;7.60;99.90;;;;;;4150909;28;20056;-68
2021/03/04 04:36:19;;;;;;;63.58;32.10;;;7.70;99.90;;;;;;4158731;28;20036;-69
2021/03/04 04:38:20;;;;;;;71.20;34.10;;;7.70;99.90;;;;;;4143620;28;20116;-69
2021/03/04 04:40:20;;;;;;;69.85;35.17;;;7.70;99.90;;;;;;4159203;28;20179;-68
2021/03/04 04:42:22;;;;;;;77.25;36.65;;;7.70;99.90;;;;;;4159455;28;20032;-68
2021/03/04 04:44:23;;;;;;;79.20;37.55;;;7.70;99.90;;;;;;4159803;28;20036;-69
2021/03/04 04:46:24;;;;;;;76.68;36.85;;;7.70;99.90;;;;;;4157659;28;20046;-69
2021/03/04 04:48:24;;;;;;;74.90;36.38;;;7.70;99.90;;;;;;4151320;28;20500;-69
2021/03/04 04:50:25;;;;;;;71.63;35.60;;;7.60;99.90;;;;;;4158987;28;20510;-68
2021/03/04 04:52:27;;;;;;;75.65;38.15;;;7.60;99.90;;;;;;4152471;28;20092;-69
2021/03/04 04:54:27;;;;;;;73.03;36.08;;;7.60;99.90;;;;;;4159152;28;20080;-69
2021/03/04 04:56:28;;;;;;;79.00;37.28;;;7.60;99.90;;;;;;4159253;28;20041;-69
2021/03/04 04:58:28;;;;;;;81.82;39.22;;;7.70;99.90;;;;;;4149967;28;20124;-68
2021/03/04 05:00:30;;;;;;;72.90;35.10;;;7.60;99.90;;;;;;4159889;28;20038;-69
2021/03/04 05:02:31;;;;;;;78.38;38.40;;;7.60;99.90;;;;;;4156793;28;20073;-68
2021/03/04 05:04:32;;;;;;;83.68;39.63;;;7.60;99.90;;;;;;4162416;28;20060;-69
2021/03/04 05:06:33;;;;;;;80.53;39.45;;;7.50;99.90;;;;;;4162286;28;20041;-69
2021/03/04 05:08:33;;;;;;;85.90;40.70;;;7.50;99.90;;;;;;4159191;28;20056;-69
2021/03/04 05:10:34;;;;;;;85.38;40.00;;;7.50;99.90;;;;;;4160597;28;20041;-68
2021/03/04 05:12:35;;;;;;;78.93;37.35;;;7.40;99.90;;;;;;4162082;28;20033;-69
2021/03/04 05:14:36;;;;;;;76.10;35.45;;;7.50;99.90;;;;;;4162170;28;20029;-69
2021/03/04 05:16:36;;;;;;;79.53;38.65;;;7.50;99.90;;;;;;4156421;28;20058;-69
2021/03/04 05:18:41;;;;;;;82.57;39.22;;;7.50;99.90;;;;;;4122742;28;20136;-68
2021/03/04 05:20:42;;;;;;;81.10;38.53;;;7.50;99.90;;;;;;4156145;28;20444;-69
2021/03/04 05:22:42;;;;;;;96.80;42.17;;;7.50;99.90;;;;;;4158048;28;20064;-68
2021/03/04 05:24:43;;;;;;;90.07;40.72;;;7.40;99.90;;;;;;4162250;28;20396;-69
2021/03/04 05:26:43;;;;;;;95.75;43.28;;;7.40;99.90;;;;;;4161735;28;20028;-69
2021/03/04 05:28:45;;;;;;;89.43;40.92;;;7.40;99.90;;;;;;4161807;28;20029;-69
2021/03/04 05:30:46;;;;;;;100.70;44.88;;;7.40;99.90;;;;;;4161565;28;20040;-69
2021/03/04 05:32:46;;;;;;;98.70;45.10;;;7.40;99.90;;;;;;4156045;28;20038;-69
2021/03/04 05:34:47;;;;;;;102.57;43.72;;;7.40;99.90;;;;;;4161490;28;20478;-69
2021/03/04 05:36:47;;;;;;;90.88;40.75;;;7.40;99.90;;;;;;4159108;28;20025;-68
2021/03/04 05:38:48;;;;;;;103.30;43.42;;;7.40;99.90;;;;;;4159950;28;20067;-69
2021/03/04 05:40:51;;;;;;;100.25;44.13;;;7.40;99.90;;;;;;4157463;28;20029;-69
2021/03/04 05:42:51;;;;;;;;;;;7.40;99.90;;;;;;4160608;28;20501;-68
2021/03/04 05:44:53;;;;;;;93.35;41.42;;;7.40;99.90;;;;;;4156620;28;19936;-69
2021/03/04 05:46:54;;;;;;;97.30;41.60;;;7.40;99.90;;;;;;4157714;28;20164;-68
2021/03/04 05:48:56;;;;;;;94.32;42.30;;;7.40;99.90;;;;;;4153448;28;20038;-69
2021/03/04 05:50:58;;;;;;;103.35;45.13;;;7.40;99.90;;;;;;4155246;28;20914;-69
2021/03/04 05:53:08;;;;;;;98.53;42.78;;;7.40;99.90;;;;;;4155337;28;20038;-68
2021/03/04 05:55:11;;;;;;;101.28;42.55;;;7.40;99.90;;;;;;4153394;28;20040;-68
2021/03/04 05:57:15;;;;;;;110.30;45.40;;;7.50;99.90;;;;;;4161044;28;20034;-69
2021/03/04 05:59:16;;;;;;;105.93;44.58;;;7.40;99.90;;;;;;4152444;28;20395;-69
2021/03/04 06:01:18;;;;;;;104.07;44.40;;;7.50;99.90;;;;;;4148144;28;20649;-68
2021/03/04 06:03:19;;;;;;;103.28;43.97;;;7.50;99.90;;;;;;4152157;28;20129;-68
2021/03/04 06:05:20;;;;;;;107.15;46.08;;;7.60;99.90;;;;;;4149353;28;20470;-69
2021/03/04 06:07:20;;;;;;;101.18;43.35;;;7.60;99.90;;;;;;4157609;28;20103;-69
2021/03/04 06:09:21;;;;;;;107.25;44.72;;;7.60;99.90;;;;;;4154438;28;20108;-69
2021/03/04 06:11:23;;;;;;;100.75;43.10;;;7.60;99.90;;;;;;4161081;28;20116;-68
2021/03/04 06:13:25;;;;;;;103.40;43.33;;;7.60;99.90;;;;;;4146147;28;20106;-69
2021/03/04 06:15:27;;;;;;;107.88;43.63;;;7.60;99.90;;;;;;4160684;28;20532;-69
2021/03/04 06:17:28;;;;;;;107.82;44.78;;;7.70;99.90;;;;;;4160404;28;20041;-69
2021/03/04 06:19:29;;;;;;;115.60;47.10;;;7.70;99.90;;;;;;4155580;28;20062;-69
2021/03/04 06:21:29;;;;;;;109.18;45.10;;;7.70;99.90;;;;;;4150368;28;20387;-69
2021/03/04 06:23:31;;;;;;;104.28;45.08;;;7.70;99.90;;;;;;4150109;28;20516;-69
2021/03/04 06:25:32;;;;;;;105.50;42.95;;;7.70;99.90;;;;;;4150476;28;20045;-69
2021/03/04 06:27:37;;;;;;;;;;;7.70;99.90;;;;;;4142810;28;20041;-69
2021/03/04 06:29:38;;;;;;;;;;;7.70;99.90;;;;;;4159624;28;19920;-69
2021/03/04 06:31:39;;;;;;;122.75;50.45;;;7.70;99.90;;;;;;4160684;28;19909;-69
2021/03/04 06:33:40;;;;;;;117.75;47.75;;;7.70;99.90;;;;;;4160156;28;20040;-69
2021/03/04 06:35:42;;;;;;;112.60;45.03;;;7.70;99.90;;;;;;4140299;28;20034;-69
2021/03/04 06:37:45;;;;;;;114.20;47.10;;;7.70;99.90;;;;;;4133483;28;20038;-69
2021/03/04 06:39:56;;;;;;;130.48;51.20;;;7.70;99.90;;;;;;4150927;28;20029;-69
2021/03/04 06:42:03;;;;;;;127.78;51.05;;;7.70;99.90;;;;;;4153162;28;20041;-69
2021/03/04 06:44:04;;;;;;;119.72;49.13;;;7.70;99.90;;;;;;4138213;28;20034;-69
2021/03/04 06:46:06;;;;;;;117.78;49.10;;;7.60;99.90;;;;;;4158473;28;20037;-69
2021/03/04 06:48:17;;;;;;;119.72;49.45;;;7.60;99.90;;;;;;4141234;28;20045;-69
2021/03/04 06:50:23;;;;;;;111.35;45.35;;;7.60;99.90;;;;;;4155752;28;20038;-69
2021/03/04 06:52:32;;;;;;;105.70;45.33;;;7.50;99.90;;;;;;4157704;28;20064;-69
2021/03/04 06:54:33;;;;;;;116.07;47.05;;;7.50;99.90;;;;;;4159644;28;20025;-69
2021/03/04 06:56:33;;;;;;;103.25;47.45;;;7.50;99.90;;;;;;4159098;28;20029;-70
2021/03/04 06:58:34;;;;;;;115.75;50.08;;;7.50;99.90;;;;;;4159430;28;20109;-69
2021/03/04 07:00:34;;;;;;;110.75;46.10;;;7.50;99.90;;;;;;4157975;28;20045;-70
2021/03/04 07:02:37;;;;;;;105.28;45.10;;;7.50;99.90;;;;;;4159155;28;20032;-69
2021/03/04 07:04:37;;;;;;;111.18;47.67;;;7.50;99.90;;;;;;4158921;28;20038;-70
2021/03/04 07:06:39;;;;;;;90.80;42.13;;;7.50;99.90;;;;;;4160171;28;20172;-70
2021/03/04 07:08:44;;;;;;;99.13;42.67;;;7.50;99.90;;;;;;4158231;28;20595;-68
2021/03/04 07:10:45;;;;;;;106.18;44.13;;;7.50;99.90;;;;;;4141493;28;20041;-68
2021/03/04 07:12:47;;;;;;;104.03;44.38;;;7.50;99.90;;;;;;4158670;28;20040;-67
2021/03/04 07:14:50;;;;;;;93.68;40.35;;;7.40;99.90;;;;;;4157045;28;20075;-68
2021/03/04 07:16:50;;;;;;;90.95;39.67;;;7.50;99.90;;;;;;4158176;28;20562;-67
2021/03/04 07:18:54;;;;;;;93.18;40.70;;;7.40;99.90;;;;;;4164257;28;20062;-68
2021/03/04 07:20:56;;;;;;;79.00;35.40;;;7.40;99.90;;;;;;4158971;28;20052;-67
2021/03/04 07:22:57;;;;;;;80.90;33.67;;;7.40;99.90;;;;;;4158747;28;20033;-67
2021/03/04 07:24:58;;;;;;;74.05;33.83;;;7.50;99.90;;;;;;4154547;28;20531;-67
2021/03/04 07:26:59;;;;;;;73.57;33.60;;;7.50;99.90;;;;;;4156168;28;20037;-67
2021/03/04 07:29:06;;;;;;;69.95;33.35;;;7.60;99.90;;;;;;4156284;28;20049;-67
2021/03/04 07:31:07;;;;;;;69.30;32.60;;;7.60;99.90;;;;;;4154949;28;20033;-67
2021/03/04 07:33:08;;;;;;;67.10;32.70;;;7.60;99.90;;;;;;4155126;28;20044;-67
2021/03/04 07:35:13;;;;;;;67.43;31.65;;;7.70;99.90;;;;;;4157302;28;20038;-67
2021/03/04 07:37:18;;;;;;;61.92;29.80;;;7.60;99.90;;;;;;4154779;28;20115;-67
2021/03/04 07:39:33;;;;;;;61.20;29.48;;;7.70;99.90;;;;;;4156358;28;20041;-67
2021/03/04 07:41:39;;;;;;;74.28;34.20;;;7.70;99.90;;;;;;4155330;28;20037;-67
2021/03/04 07:43:57;;;;;;;63.17;31.20;;;7.60;99.90;;;;;;4157501;28;20060;-67
2021/03/04 07:45:59;;;;;;;57.47;26.70;;;7.50;99.90;;;;;;4154915;28;20071;-67
2021/03/04 07:48:09;;;;;;;46.15;24.77;;;7.60;99.90;;;;;;4157138;28;20029;-67
2021/03/04 07:50:21;;;;;;;50.53;24.77;;;7.60;99.90;;;;;;4155379;28;20053;-67
2021/03/04 07:52:23;;;;;;;46.00;24.75;;;7.60;99.90;;;;;;4156289;28;20160;-70
2021/03/04 07:54:28;;;;;;;44.78;22.60;;;7.50;99.90;;;;;;4155011;28;20037;-67
2021/03/04 07:56:29;;;;;;;44.33;23.30;;;7.50;99.90;;;;;;4156238;28;20029;-67
2021/03/04 07:58:37;;;;;;;41.72;22.45;;;7.50;99.90;;;;;;4158553;28;20483;-67
2021/03/04 08:00:38;;;;;;;41.35;22.73;;;7.50;99.90;;;;;;4157809;28;20528;-66
2021/03/04 08:02:42;;;;;;;47.38;23.30;;;7.50;99.90;;;;;;4157880;28;20033;-66
2021/03/04 08:04:42;;;;;;;46.90;25.00;;;7.40;99.90;;;;;;4157017;28;20037;-67
2021/03/04 08:06:44;;;;;;;56.90;27.80;;;7.50;99.90;;;;;;4157212;28;20067;-67
2021/03/04 08:08:47;;;;;;;55.90;28.33;;;7.40;99.90;;;;;;4157223;28;20482;-67
2021/03/04 08:10:54;;;;;;;51.15;25.75;;;7.40;99.90;;;;;;4152203;28;20631;-67
2021/03/04 08:13:00;;;;;;;46.70;24.58;;;7.40;99.90;;;;;;4156132;28;20560;-67
2021/03/04 08:15:07;;;;;;;38.53;21.67;;;7.40;99.90;;;;;;4150102;28;21386;-67
2021/03/04 08:17:08;;;;;;;33.05;18.98;;;7.40;99.90;;;;;;4153885;28;20033;-67
2021/03/04 08:19:09;;;;;;;37.28;20.48;;;7.30;99.90;;;;;;4155383;28;21077;-67
2021/03/04 08:21:10;;;;;;;32.92;17.35;;;7.30;99.90;;;;;;4155292;28;20145;-67
2021/03/04 08:23:10;;;;;;;34.05;16.90;;;7.30;99.90;;;;;;4154802;28;20029;-67
2021/03/04 08:25:13;;;;;;;32.13;16.55;;;7.20;99.90;;;;;;4156333;28;20030;-67
2021/03/04 08:27:14;;;;;;;29.70;15.55;;;7.20;99.90;;;;;;4158923;28;20082;-67
2021/03/04 08:29:15;;;;;;;26.35;15.15;;;7.30;99.90;;;;;;4156915;28;20041;-67
2021/03/04 08:31:16;;;;;;;30.25;16.40;;;7.30;99.90;;;;;;4154393;28;20065;-67
2021/03/04 08:33:17;;;;;;;31.30;17.33;;;7.20;99.90;;;;;;4148018;28;20042;-67
2021/03/04 08:35:19;;;;;;;31.52;15.50;;;7.20;99.90;;;;;;4152484;28;20041;-67
2021/03/04 08:37:23;;;;;;;28.20;15.32;;;7.10;99.90;;;;;;4161341;28;20402;-67
2021/03/04 08:39:23;;;;;;;27.65;14.55;;;7.20;99.90;;;;;;4156179;28;20525;-67
2021/03/04 08:41:24;;;;;;;28.23;13.43;;;7.20;99.90;;;;;;4162237;28;20115;-67
2021/03/04 08:43:27;;;;;;;23.70;11.88;;;7.00;99.90;;;;;;4160692;28;20437;-67
2021/03/04 08:45:28;;;;;;;;;;;7.00;99.90;;;;;;4160678;28;20119;-67
2021/03/04 08:47:29;;;;;;;22.10;12.38;;;7.00;99.90;;;;;;4160005;28;19913;-67
2021/03/04 08:49:30;;;;;;;20.67;11.38;;;7.00;99.90;;;;;;4172327;28;20037;-67
2021/03/04 08:51:30;;;;;;;23.52;11.35;;;7.00;99.90;;;;;;4161507;28;20029;-67
2021/03/04 08:53:33;;;;;;;17.27;9.68;;;7.00;99.90;;;;;;4161778;28;20089;-67
2021/03/04 08:55:36;;;;;;;19.17;10.43;;;7.00;99.90;;;;;;4161351;28;20033;-67
2021/03/04 08:57:36;;;;;;;18.35;9.45;;;7.00;99.90;;;;;;4159940;28;20049;-67
2021/03/04 08:59:37;;;;;;;17.00;9.05;;;7.00;99.90;;;;;;4160429;28;20129;-67
2021/03/04 09:01:37;;;;;;;13.95;7.82;;;7.00;99.90;;;;;;4156825;28;20034;-67
2021/03/04 09:03:40;;;;;;;13.32;7.53;;;7.00;99.90;;;;;;4149297;28;20128;-67
2021/03/04 09:05:41;;;;;;;14.93;7.25;;;7.00;99.90;;;;;;4156822;28;20674;-67
2021/03/04 09:07:43;;;;;;;13.13;7.10;;;7.00;99.90;;;;;;4142563;28;20037;-67
2021/03/04 09:09:44;;;;;;;;;;;6.90;99.90;;;;;;4168671;28;20179;-67
2021/03/04 09:11:46;;;;;;;10.20;6.47;;;6.90;99.90;;;;;;4161678;28;19925;-67
2021/03/04 09:13:47;;;;;;;12.02;6.03;;;6.90;99.90;;;;;;4160204;28;20033;-67
2021/03/04 09:15:56;;;;;;;13.93;7.03;;;6.90;99.90;;;;;;4158651;28;20552;-67
2021/03/04 09:17:57;;;;;;;12.88;7.03;;;6.80;99.90;;;;;;4152727;28;20571;-67
2021/03/04 09:19:58;;;;;;;13.15;6.85;;;6.80;99.90;;;;;;4153690;28;20041;-67
2021/03/04 09:22:09;;;;;;;14.77;7.07;;;6.80;99.90;;;;;;4159463;28;20044;-67
2021/03/04 09:24:11;;;;;;;14.95;7.68;;;6.80;99.90;;;;;;4158594;28;20048;-67
2021/03/04 09:26:12;;;;;;;12.07;6.63;;;6.80;99.90;;;;;;4157828;28;20588;-67
2021/03/04 09:28:15;;;;;;;13.25;6.88;;;6.70;99.90;;;;;;4160342;28;20042;-67
2021/03/04 09:30:28;;;;;;;;;;;6.70;99.90;;;;;;4159543;28;20436;-67
2021/03/04 09:32:31;;;;;;;13.10;7.10;;;6.70;99.90;;;;;;4158298;28;20257;-67
2021/03/04 09:34:36;;;;;;;13.77;7.20;;;6.70;99.90;;;;;;4157620;28;20034;-67
2021/03/04 09:36:36;;;;;;;12.82;7.18;;;6.60;99.90;;;;;;4157464;28;20091;-66
2021/03/04 09:38:51;;;;;;;16.65;7.50;;;6.60;99.90;;;;;;4157099;28;20041;-67
2021/03/04 09:40:53;;;;;;;18.80;8.88;;;6.60;99.90;;;;;;4154953;28;20044;-67
2021/03/04 09:42:53;;;;;;;15.40;8.18;;;6.60;99.90;;;;;;4159931;28;20022;-67
2021/03/04 09:44:56;;;;;;;14.20;7.40;;;6.60;99.90;;;;;;4158508;28;20148;-67
2021/03/04 09:46:57;;;;;;;13.88;7.88;;;6.60;99.90;;;;;;4160236;28;20026;-67
2021/03/04 09:49:12;;;;;;;13.30;7.55;;;6.70;99.90;;;;;;4154275;28;20163;-67
2021/03/04 09:51:12;;;;;;;15.43;8.60;;;6.70;99.90;;;;;;4151603;28;20037;-67
2021/03/04 09:53:13;;;;;;;20.48;9.02;;;6.70;99.90;;;;;;4158424;28;20032;-67
2021/03/04 09:55:17;;;;;;;20.70;10.25;;;6.70;99.90;;;;;;4159320;28;20118;-67
2021/03/04 09:57:19;;;;;;;18.38;9.20;;;6.80;99.90;;;;;;4150897;28;20129;-67
2021/03/04 09:59:20;;;;;;;;;;;6.80;99.90;;;;;;4156289;28;20033;-67
2021/03/04 10:01:35;;;;;;;15.23;8.68;;;6.70;99.90;;;;;;4153960;28;19974;-67
2021/03/04 10:03:38;;;;;;;16.73;8.70;;;6.80;99.90;;;;;;4157708;28;20670;-67
2021/03/04 10:05:50;;;;;;;17.35;9.15;;;6.80;99.90;;;;;;4156340;28;20132;-67
2021/03/04 10:07:56;;;;;;;;;;;6.80;99.90;;;;;;4157141;28;20528;-67
2021/03/04 10:09:59;;;;;;;20.42;8.82;;;6.80;99.90;;;;;;4159298;28;19932;-67
2021/03/04 10:12:02;;;;;;;15.77;7.70;;;6.80;99.90;;;;;;4159034;28;20038;-67
2021/03/04 10:14:09;;;;;;;12.68;7.10;;;6.80;99.90;;;;;;4158001;28;20416;-67
2021/03/04 10:16:12;;;;;;;14.88;8.27;;;6.80;99.90;;;;;;4159806;28;20037;-67
2021/03/04 10:18:14;;;;;;;18.67;8.40;;;6.80;99.90;;;;;;4156116;28;20030;-67
2021/03/04 10:20:15;;;;;;;;;;;6.90;99.90;;;;;;4159750;28;20677;-66
2021/03/04 10:22:16;;;;;;;15.43;7.43;;;6.80;99.90;;;;;;4158013;28;19913;-67
2021/03/04 10:24:18;;;;;;;13.32;7.35;;;6.80;99.90;;;;;;4158998;28;20037;-67
2021/03/04 10:26:19;;;;;;;14.65;6.45;;;6.80;99.90;;;;;;4156385;28;20095;-67
2021/03/04 10:28:20;;;;;;;13.60;7.00;;;6.80;99.90;;;;;;4144319;28;20050;-67
2021/03/04 10:30:22;;;;;;;14.43;7.47;;;6.80;99.90;;;;;;4153249;28;20065;-67
2021/03/04 10:32:23;;;;;;;13.77;8.25;;;6.80;99.90;;;;;;4155200;28;20137;-67